createdAt,value
2018-11-28T00:00:48.491Z,95.00
2018-11-28T00:03:17.952Z,94.40
2018-11-28T00:05:47.622Z,94.60
2018-11-28T00:08:17.288Z,94.20
2018-11-28T00:10:46.996Z,95.10
2018-11-28T00:13:16.651Z,95.30
2018-11-28T00:15:46.262Z,95.30
2018-11-28T00:18:15.990Z,94.60
2018-11-28T00:20:45.839Z,93.30
2018-11-28T00:23:15.400Z,93.50
2018-11-28T00:25:45.138Z,93.70
2018-11-28T00:28:14.790Z,94.20
2018-11-28T00:30:44.490Z,94.40
2018-11-28T00:33:14.141Z,94.60
2018-11-28T00:35:43.648Z,95.10
2018-11-28T00:38:13.245Z,94.90
2018-11-28T00:40:42.910Z,93.90
2018-11-28T00:43:12.628Z,93.90
2018-11-28T00:45:42.368Z,94.20
2018-11-28T00:48:12.022Z,95.30
2018-11-28T00:50:41.444Z,94.70
2018-11-28T00:53:11.081Z,94.10
2018-11-28T00:55:40.698Z,95.10
2018-11-28T00:58:10.341Z,95.10
2018-11-28T01:00:39.806Z,95.20
2018-11-28T01:03:09.480Z,95.00
2018-11-28T01:05:39.100Z,95.20
2018-11-28T01:08:08.828Z,95.20
2018-11-28T01:10:38.459Z,95.30
2018-11-28T01:13:08.101Z,95.10
2018-11-28T01:15:37.738Z,95.10
2018-11-28T01:18:07.686Z,94.30
2018-11-28T01:20:37.370Z,95.00
2018-11-28T01:23:07.022Z,94.90
2018-11-28T01:25:36.744Z,94.80
2018-11-28T01:28:06.671Z,94.40
2018-11-28T01:30:36.211Z,94.50
2018-11-28T01:33:06.247Z,93.30
2018-11-28T01:35:35.922Z,93.70
2018-11-28T01:38:05.447Z,93.50
2018-11-28T01:40:35.167Z,93.70
2018-11-28T01:43:04.861Z,94.10
2018-11-28T01:45:34.586Z,94.10
2018-11-28T01:48:04.599Z,94.70
2018-11-28T01:50:34.295Z,94.90
2018-11-28T01:53:03.869Z,95.00
2018-11-28T01:55:33.511Z,94.90
2018-11-28T01:58:03.158Z,94.00
2018-11-28T02:00:32.826Z,93.80
2018-11-28T02:03:03.098Z,94.00
2018-11-28T02:05:32.848Z,93.80
2018-11-28T02:08:02.585Z,93.40
2018-11-28T02:10:32.138Z,93.40
2018-11-28T02:13:01.691Z,93.50
2018-11-28T02:15:31.474Z,93.70
2018-11-28T02:18:01.212Z,92.70
2018-11-28T02:20:30.802Z,93.80
2018-11-28T02:23:00.320Z,93.30
2018-11-28T02:25:29.924Z,93.10
2018-11-28T02:27:59.772Z,93.80
2018-11-28T02:30:29.235Z,95.00
2018-11-28T02:32:59.022Z,94.90
2018-11-28T02:35:28.745Z,95.00
2018-11-28T02:37:58.624Z,95.00
2018-11-28T02:40:29.207Z,94.20
2018-11-28T02:42:58.749Z,94.60
2018-11-28T02:45:28.463Z,94.40
2018-11-28T02:47:58.018Z,94.20
2018-11-28T02:50:27.683Z,94.00
2018-11-28T02:52:57.356Z,94.30
2018-11-28T02:55:26.987Z,93.60
2018-11-28T02:57:56.694Z,94.20
2018-11-28T03:00:26.584Z,94.20
2018-11-28T03:02:56.283Z,94.70
2018-11-28T03:05:25.832Z,94.60
2018-11-28T03:07:55.239Z,94.70
2018-11-28T03:10:24.625Z,94.30
2018-11-28T03:12:54.263Z,93.60
2018-11-28T03:15:28.423Z,93.90
2018-11-28T03:17:58.019Z,93.70
2018-11-28T03:20:27.697Z,93.80
2018-11-28T03:22:57.545Z,93.60
2018-11-28T03:25:27.374Z,94.10
2018-11-28T03:27:56.968Z,94.30
2018-11-28T03:30:26.731Z,94.30
2018-11-28T03:32:56.441Z,94.00
2018-11-28T03:35:26.080Z,94.40
2018-11-28T03:37:55.557Z,94.50
2018-11-28T03:40:25.293Z,93.40
2018-11-28T03:42:54.672Z,93.50
2018-11-28T03:45:24.127Z,93.30
2018-11-28T03:47:53.776Z,93.00
2018-11-28T03:50:23.414Z,93.30
2018-11-28T03:52:53.239Z,94.10
2018-11-28T03:55:22.983Z,93.80
2018-11-28T03:57:52.727Z,92.70
2018-11-28T04:00:22.580Z,93.40
2018-11-28T04:02:52.315Z,93.80
2018-11-28T04:05:22.117Z,93.60
2018-11-28T04:07:51.926Z,93.50
2018-11-28T04:10:21.503Z,93.40
2018-11-28T04:12:51.137Z,93.00
2018-11-28T04:15:21.430Z,93.80
2018-11-28T04:17:51.094Z,93.80
2018-11-28T04:20:22.723Z,94.40
2018-11-28T04:22:52.460Z,94.30
2018-11-28T04:25:23.036Z,94.50
2018-11-28T04:27:52.914Z,94.60
2018-11-28T04:30:23.695Z,94.30
2018-11-28T04:32:55.175Z,93.90
2018-11-28T04:35:25.133Z,93.50
2018-11-28T04:37:54.906Z,94.10
2018-11-28T04:40:24.623Z,93.80
2018-11-28T04:42:54.484Z,94.00
2018-11-28T04:45:24.577Z,94.40
2018-11-28T04:47:55.015Z,94.30
2018-11-28T04:50:24.819Z,92.70
2018-11-28T04:52:54.575Z,93.70
2018-11-28T04:55:24.222Z,93.30
2018-11-28T04:57:53.970Z,93.30
2018-11-28T05:00:24.751Z,93.60
2018-11-28T05:02:55.429Z,93.20
2018-11-28T05:05:25.038Z,93.20
2018-11-28T05:07:54.940Z,93.20
2018-11-28T05:10:27.385Z,93.30
2018-11-28T05:12:57.877Z,93.70
2018-11-28T05:15:29.563Z,93.00
2018-11-28T05:17:59.050Z,93.80
2018-11-28T05:20:30.867Z,94.00
2018-11-28T05:23:00.425Z,94.00
2018-11-28T05:25:30.323Z,93.90
2018-11-28T05:28:00.060Z,93.90
2018-11-28T05:30:30.572Z,93.90
2018-11-28T05:33:00.522Z,94.00
2018-11-28T05:35:34.513Z,93.80
2018-11-28T05:38:07.092Z,94.30
2018-11-28T05:40:36.887Z,93.50
2018-11-28T05:43:06.768Z,93.50
2018-11-28T05:45:36.322Z,93.50
2018-11-28T05:48:06.166Z,92.70
2018-11-28T05:50:35.802Z,93.80
2018-11-28T05:53:05.591Z,93.70
2018-11-28T05:55:35.210Z,92.90
2018-11-28T05:58:05.973Z,92.90
2018-11-28T06:00:39.341Z,93.30
2018-11-28T06:03:10.723Z,93.40
2018-11-28T06:05:41.503Z,92.90
2018-11-28T06:08:11.116Z,93.00
2018-11-28T06:10:40.668Z,92.80
2018-11-28T06:13:10.398Z,93.00
2018-11-28T06:15:39.984Z,93.10
2018-11-28T06:18:09.983Z,93.30
2018-11-28T06:20:39.592Z,93.70
2018-11-28T06:23:09.114Z,92.90
2018-11-28T06:25:38.636Z,93.20
2018-11-28T06:28:08.258Z,92.70
2018-11-28T06:30:37.946Z,92.20
2018-11-28T06:33:07.592Z,92.30
2018-11-28T06:35:37.272Z,93.00
2018-11-28T06:38:07.640Z,93.00
2018-11-28T06:40:37.455Z,93.10
2018-11-28T06:43:07.144Z,93.20
2018-11-28T06:45:37.210Z,93.30
2018-11-28T06:48:06.792Z,92.60
2018-11-28T06:50:36.663Z,92.60
2018-11-28T06:53:06.533Z,92.40
2018-11-28T06:55:36.255Z,92.60
2018-11-28T06:58:06.563Z,92.90
2018-11-28T07:00:36.256Z,92.40
2018-11-28T07:03:05.959Z,92.40
2018-11-28T07:05:35.866Z,93.30
2018-11-28T07:08:05.917Z,92.80
2018-11-28T07:10:35.972Z,93.30
2018-11-28T07:13:06.144Z,92.60
2018-11-28T07:15:35.770Z,91.60
2018-11-28T07:18:16.484Z,92.10
2018-11-28T07:20:46.327Z,92.60
2018-11-28T07:23:15.969Z,92.70
2018-11-28T07:25:45.616Z,92.00
2018-11-28T07:28:15.120Z,92.50
2018-11-28T07:30:44.824Z,92.10
2018-11-28T07:33:14.354Z,92.90
2018-11-28T07:35:43.918Z,93.00
2018-11-28T07:38:13.580Z,92.50
2018-11-28T07:40:43.232Z,92.30
2018-11-28T07:43:13.883Z,91.30
2018-11-28T07:45:47.016Z,91.70
2018-11-28T07:48:16.625Z,91.20
2018-11-28T07:50:47.452Z,92.10
2018-11-28T07:53:15.836Z,92.20
2018-11-28T07:55:45.439Z,92.50
2018-11-28T07:58:14.970Z,92.10
2018-11-28T08:00:44.448Z,92.00
2018-11-28T08:03:14.125Z,92.20
2018-11-28T08:05:43.812Z,92.30
2018-11-28T08:08:13.522Z,91.30
2018-11-28T08:10:43.205Z,92.10
2018-11-28T08:13:12.842Z,91.70
2018-11-28T08:15:42.523Z,91.70
2018-11-28T08:18:12.257Z,91.70
2018-11-28T08:20:41.617Z,92.20
2018-11-28T08:23:11.064Z,91.40
2018-11-28T08:25:40.748Z,91.00
2018-11-28T08:28:10.508Z,91.30
2018-11-28T08:30:40.172Z,91.20
2018-11-28T08:33:09.980Z,90.80
2018-11-28T08:35:39.865Z,91.40
2018-11-28T08:38:09.581Z,91.10
2018-11-28T08:40:39.252Z,91.90
2018-11-28T08:43:08.823Z,91.30
2018-11-28T08:45:38.318Z,91.30
2018-11-28T08:48:07.865Z,91.40
2018-11-28T08:50:38.382Z,92.00
2018-11-28T08:53:08.221Z,91.80
2018-11-28T08:55:37.688Z,91.90
2018-11-28T08:58:07.340Z,91.90
2018-11-28T09:00:37.109Z,91.70
2018-11-28T09:03:07.295Z,91.70
2018-11-28T09:05:36.764Z,91.50
2018-11-28T09:08:06.432Z,92.00
2018-11-28T09:10:36.011Z,91.30
2018-11-28T09:13:06.183Z,91.30
2018-11-28T09:15:35.852Z,91.60
2018-11-28T09:18:05.779Z,91.60
2018-11-28T09:20:35.680Z,91.20
2018-11-28T09:23:06.054Z,91.10
2018-11-28T09:25:35.776Z,92.10
2018-11-28T09:28:06.060Z,91.90
2018-11-28T09:30:35.768Z,92.10
2018-11-28T09:33:05.820Z,91.40
2018-11-28T09:35:35.490Z,91.60
2018-11-28T09:38:05.064Z,91.70
2018-11-28T09:40:34.715Z,90.90
2018-11-28T09:43:04.618Z,91.20
2018-11-28T09:45:34.452Z,91.10
2018-11-28T09:48:04.107Z,91.30
2018-11-28T09:50:33.552Z,91.40
2018-11-28T09:53:03.084Z,91.30
2018-11-28T09:55:32.532Z,91.10
2018-11-28T09:58:02.510Z,91.20
2018-11-28T10:00:32.095Z,90.70
2018-11-28T10:03:02.097Z,91.40
2018-11-28T10:05:33.106Z,91.20
2018-11-28T10:08:02.923Z,90.50
2018-11-28T10:10:32.664Z,90.60
2018-11-28T10:13:02.392Z,91.30
2018-11-28T10:15:35.589Z,90.90
2018-11-28T10:18:01.806Z,90.70
2018-11-28T10:20:31.297Z,90.50
2018-11-28T10:23:00.908Z,90.30
2018-11-28T10:25:30.648Z,90.20
2018-11-28T10:28:02.887Z,90.50
2018-11-28T10:30:36.648Z,89.60
2018-11-28T10:33:10.356Z,90.40
2018-11-28T10:35:40.944Z,90.90
2018-11-28T10:38:10.676Z,89.80
2018-11-28T10:40:40.330Z,90.50
2018-11-28T10:43:10.349Z,90.00
2018-11-28T10:45:40.004Z,90.00
2018-11-28T10:48:11.624Z,90.30
2018-11-28T10:50:41.254Z,90.90
2018-11-28T10:53:10.824Z,90.60
2018-11-28T10:55:40.625Z,89.20
2018-11-28T10:58:10.297Z,90.00
2018-11-28T11:00:45.359Z,90.60
2018-11-28T11:03:20.186Z,90.80
2018-11-28T11:05:55.123Z,89.70
2018-11-28T11:08:27.808Z,90.70
2018-11-28T11:11:02.871Z,89.60
2018-11-28T11:13:37.796Z,89.10
2018-11-28T11:16:07.537Z,87.70
2018-11-28T11:18:37.226Z,89.10
2018-11-28T11:21:06.892Z,87.40
2018-11-28T11:23:36.512Z,88.90
2018-11-28T11:26:06.381Z,88.90
2018-11-28T11:28:37.323Z,88.60
2018-11-28T11:31:05.668Z,90.10
2018-11-28T11:33:35.360Z,89.90
2018-11-28T11:36:04.920Z,90.20
2018-11-28T11:38:34.680Z,90.00
2018-11-28T11:41:04.280Z,90.60
2018-11-28T11:43:33.933Z,89.00
2018-11-28T11:46:03.463Z,89.10
2018-11-28T11:48:33.162Z,90.30
2018-11-28T11:51:02.944Z,90.50
2018-11-28T11:53:32.551Z,90.20
2018-11-28T11:56:02.157Z,90.30
2018-11-28T11:58:31.839Z,90.10
2018-11-28T12:01:01.556Z,88.90
2018-11-28T12:03:31.190Z,90.00
2018-11-28T12:06:00.831Z,89.30
2018-11-28T12:08:30.727Z,89.50
2018-11-28T12:11:00.140Z,90.00
2018-11-28T12:13:29.758Z,90.00
2018-11-28T12:15:59.442Z,90.10
2018-11-28T12:18:29.423Z,89.70
2018-11-28T12:21:01.712Z,89.40
2018-11-28T12:23:31.267Z,89.30
2018-11-28T12:26:00.960Z,89.40
2018-11-28T12:28:30.713Z,89.40
2018-11-28T12:31:00.441Z,89.70
2018-11-28T12:33:30.220Z,90.20
2018-11-28T12:35:59.974Z,90.30
2018-11-28T12:38:29.718Z,90.00
2018-11-28T12:40:59.634Z,90.20
2018-11-28T12:43:29.743Z,90.20
2018-11-28T12:45:59.146Z,90.30
2018-11-28T12:48:29.002Z,90.40
2018-11-28T12:50:58.734Z,90.40
2018-11-28T12:53:28.514Z,90.10
2018-11-28T12:55:58.475Z,90.20
2018-11-28T12:58:28.151Z,89.30
2018-11-28T13:00:57.743Z,89.70
2018-11-28T13:03:27.523Z,89.40
2018-11-28T13:05:57.253Z,90.50
2018-11-28T13:08:27.006Z,89.20
2018-11-28T13:10:56.780Z,88.30
2018-11-28T13:13:26.309Z,89.30
2018-11-28T13:15:56.464Z,88.70
2018-11-28T13:18:26.456Z,88.70
2018-11-28T13:20:56.773Z,89.40
2018-11-28T13:23:26.522Z,89.20
2018-11-28T13:25:56.187Z,88.80
2018-11-28T13:28:26.058Z,89.40
2018-11-28T13:30:56.334Z,88.80
2018-11-28T13:33:26.558Z,89.00
2018-11-28T13:35:56.761Z,89.60
2018-11-28T13:38:26.907Z,88.30
2018-11-28T13:40:56.505Z,88.20
2018-11-28T13:43:26.675Z,88.00
2018-11-28T13:45:56.731Z,88.20
2018-11-28T13:48:26.436Z,88.20
2018-11-28T13:50:56.239Z,88.20
2018-11-28T13:53:26.169Z,89.30
2018-11-28T13:58:27.223Z,88.20
2018-11-28T14:00:57.359Z,87.70
2018-11-28T14:03:27.237Z,87.20
2018-11-28T14:05:57.595Z,88.50
2018-11-28T14:08:27.827Z,87.80
2018-11-28T14:10:57.564Z,88.20
2018-11-28T14:13:27.580Z,88.30
2018-11-28T14:15:57.155Z,87.30
2018-11-28T14:18:26.793Z,88.10
2018-11-28T14:20:56.490Z,87.50
2018-11-28T14:23:26.146Z,88.20
2018-11-28T14:25:55.943Z,88.20
2018-11-28T14:28:25.684Z,88.20
2018-11-28T14:30:55.323Z,88.20
2018-11-28T14:33:25.124Z,87.60
2018-11-28T14:35:54.877Z,88.80
2018-11-28T14:38:26.289Z,89.20
2018-11-28T14:40:56.235Z,88.20
2018-11-28T14:43:26.260Z,88.20
2018-11-28T14:45:56.674Z,88.20
2018-11-28T14:48:26.951Z,88.20
2018-11-28T14:50:56.636Z,87.00
2018-11-28T14:53:26.587Z,87.90
2018-11-28T14:55:56.742Z,88.30
2018-11-28T14:58:27.617Z,88.00
2018-11-28T15:00:56.655Z,88.60
2018-11-28T15:03:26.618Z,88.70
2018-11-28T15:06:02.292Z,87.90
2018-11-28T15:08:33.507Z,87.70
2018-11-28T15:11:10.396Z,87.50
2018-11-28T15:13:40.622Z,87.20
2018-11-28T15:16:10.928Z,87.70
2018-11-28T15:18:40.967Z,87.20
2018-11-28T15:21:12.076Z,87.10
2018-11-28T15:23:41.898Z,87.10
2018-11-28T15:26:11.434Z,88.50
2018-11-28T15:28:41.354Z,87.50
2018-11-28T15:31:11.008Z,88.90
2018-11-28T15:33:41.002Z,87.50
2018-11-28T15:36:11.368Z,87.70
2018-11-28T15:38:41.068Z,87.50
2018-11-28T15:41:10.892Z,87.20
2018-11-28T15:43:40.685Z,87.80
2018-11-28T15:46:14.773Z,88.30
2018-11-28T15:48:40.335Z,88.00
2018-11-28T15:51:09.894Z,86.90
2018-11-28T15:53:40.076Z,87.70
2018-11-28T15:56:09.895Z,87.90
2018-11-28T15:58:39.570Z,87.40
2018-11-28T16:01:09.373Z,87.60
2018-11-28T16:03:39.082Z,87.50
2018-11-28T16:06:08.844Z,88.20
2018-11-28T16:08:38.452Z,88.00
2018-11-28T16:11:12.410Z,87.50
2018-11-28T16:13:42.072Z,87.40
2018-11-28T16:16:11.899Z,88.20
2018-11-28T16:18:41.575Z,89.00
2018-11-28T16:21:11.109Z,88.20
2018-11-28T16:23:40.803Z,87.20
2018-11-28T16:26:10.601Z,87.60
2018-11-28T16:28:40.220Z,87.10
2018-11-28T16:31:10.111Z,88.40
2018-11-28T16:33:39.909Z,88.20
2018-11-28T16:36:09.744Z,88.00
2018-11-28T16:38:39.300Z,88.00
2018-11-28T16:41:08.971Z,87.90
2018-11-28T16:43:38.669Z,88.60
2018-11-28T16:46:08.426Z,87.60
2018-11-28T16:48:38.075Z,88.60
2018-11-28T16:51:07.920Z,88.90
2018-11-28T16:53:37.624Z,88.70
2018-11-28T16:56:07.480Z,88.30
2018-11-28T16:58:37.120Z,88.00
2018-11-28T17:01:07.012Z,88.30
2018-11-28T17:03:36.593Z,89.10
2018-11-28T17:06:06.296Z,88.30
2018-11-28T17:08:35.888Z,88.20
2018-11-28T17:11:06.456Z,88.50
2018-11-28T17:13:36.633Z,88.20
2018-11-28T17:16:06.458Z,88.50
2018-11-28T17:18:36.347Z,88.20
2018-11-28T17:21:06.435Z,88.30
2018-11-28T17:23:36.655Z,88.20
2018-11-28T17:26:06.890Z,87.80
2018-11-28T17:28:36.952Z,87.90
2018-11-28T17:31:07.241Z,88.30
2018-11-28T17:33:37.053Z,88.80
2018-11-28T17:36:06.500Z,88.40
2018-11-28T17:38:36.060Z,88.30
2018-11-28T17:41:06.118Z,88.60
2018-11-28T17:43:35.824Z,88.00
2018-11-28T17:46:05.541Z,88.90
2018-11-28T17:48:35.538Z,88.50
2018-11-28T17:51:05.562Z,87.50
2018-11-28T17:53:35.852Z,87.50
2018-11-28T17:56:05.723Z,87.30
2018-11-28T17:58:35.266Z,87.90
2018-11-28T18:01:05.300Z,87.50
2018-11-28T18:03:34.951Z,87.70
2018-11-28T18:06:04.686Z,88.00
2018-11-28T18:08:34.318Z,87.50
2018-11-28T18:11:14.600Z,87.70
2018-11-28T18:13:44.963Z,87.40
2018-11-28T18:16:14.815Z,88.00
2018-11-28T18:18:44.380Z,88.30
2018-11-28T18:21:14.051Z,88.80
2018-11-28T18:23:43.780Z,88.50
2018-11-28T18:26:14.641Z,88.10
2018-11-28T18:28:44.442Z,87.40
2018-11-28T18:31:14.105Z,88.20
2018-11-28T18:33:43.784Z,87.20
2018-11-28T18:36:13.221Z,86.90
2018-11-28T18:38:42.936Z,86.90
2018-11-28T18:41:12.452Z,87.70
2018-11-28T18:43:42.225Z,86.60
2018-11-28T18:46:11.889Z,87.30
2018-11-28T18:48:41.459Z,86.00
2018-11-28T18:51:11.060Z,87.10
2018-11-28T18:53:40.788Z,87.30
2018-11-28T18:56:10.560Z,87.10
2018-11-28T18:58:40.177Z,87.20
2018-11-28T19:01:09.724Z,87.10
2018-11-28T19:03:39.488Z,87.10
2018-11-28T19:06:09.143Z,87.50
2018-11-28T19:08:38.700Z,86.40
2018-11-28T19:11:08.325Z,87.20
2018-11-28T19:13:38.373Z,86.80
2018-11-28T19:16:08.242Z,87.60
2018-11-28T19:18:37.551Z,87.10
2018-11-28T19:21:07.371Z,87.40
2018-11-28T19:23:37.035Z,87.40
2018-11-28T19:26:06.989Z,87.40
2018-11-28T19:28:37.033Z,87.50
2018-11-28T19:31:06.943Z,87.10
2018-11-28T19:33:36.849Z,87.80
2018-11-28T19:36:07.452Z,87.60
2018-11-28T19:38:37.180Z,87.20
2018-11-28T19:41:08.925Z,87.50
2018-11-28T19:43:38.920Z,87.40
2018-11-28T19:46:08.610Z,87.40
2018-11-28T19:48:38.307Z,86.90
2018-11-28T19:51:08.010Z,87.70
2018-11-28T19:53:37.551Z,87.30
2018-11-28T19:56:07.422Z,87.20
2018-11-28T19:58:40.962Z,87.70
2018-11-28T20:01:11.190Z,87.50
2018-11-28T20:03:40.970Z,86.80
2018-11-28T20:06:10.666Z,87.10
2018-11-28T20:08:40.428Z,87.10
2018-11-28T20:11:10.190Z,87.90
2018-11-28T20:13:39.738Z,87.60
2018-11-28T20:16:09.494Z,87.00
2018-11-28T20:18:39.189Z,87.50
2018-11-28T20:21:08.733Z,87.90
2018-11-28T20:23:38.406Z,87.10
2018-11-28T20:26:08.152Z,87.00
2018-11-28T20:28:37.953Z,86.80
2018-11-28T20:31:07.649Z,87.20
2018-11-28T20:33:37.488Z,87.50
2018-11-28T20:36:07.222Z,87.30
2018-11-28T20:38:36.754Z,87.10
2018-11-28T20:41:06.561Z,87.50
2018-11-28T20:43:36.168Z,87.40
2018-11-28T20:46:07.314Z,87.50
2018-11-28T20:48:36.954Z,87.70
2018-11-28T20:51:07.857Z,87.20
2018-11-28T20:53:38.003Z,88.20
2018-11-28T20:56:07.760Z,87.50
2018-11-28T20:58:37.470Z,87.80
2018-11-28T21:01:07.165Z,87.00
2018-11-28T21:03:36.843Z,88.20
2018-11-28T21:06:06.787Z,87.50
2018-11-28T21:08:36.667Z,88.30
2018-11-28T21:11:07.092Z,87.20
2018-11-28T21:13:36.910Z,87.90
2018-11-28T21:16:07.170Z,88.00
2018-11-28T21:18:36.776Z,87.20
2018-11-28T21:21:07.330Z,88.40
2018-11-28T21:23:36.890Z,88.50
2018-11-28T21:26:06.647Z,87.90
2018-11-28T21:28:36.226Z,87.70
2018-11-28T21:31:06.247Z,86.90
2018-11-28T21:33:36.060Z,87.90
2018-11-28T21:36:05.971Z,88.10
2018-11-28T21:38:35.811Z,86.50
2018-11-28T21:41:05.690Z,87.10
2018-11-28T21:43:35.296Z,87.40
2018-11-28T21:46:05.228Z,88.20
2018-11-28T21:48:34.878Z,88.30
2018-11-28T21:51:04.649Z,87.50
2018-11-28T21:53:34.323Z,87.20
2018-11-28T21:56:04.076Z,87.40
2018-11-28T21:58:33.776Z,87.90
2018-11-28T22:01:03.490Z,88.10
2018-11-28T22:03:33.058Z,87.70
2018-11-28T22:06:02.890Z,87.60
2018-11-28T22:08:32.585Z,87.30
2018-11-28T22:11:02.338Z,87.90
2018-11-28T22:13:32.102Z,87.50
2018-11-28T22:16:01.919Z,88.20
2018-11-28T22:18:31.393Z,88.20
2018-11-28T22:21:01.233Z,88.30
2018-11-28T22:23:30.983Z,87.90
2018-11-28T22:26:00.615Z,87.50
2018-11-28T22:28:30.367Z,88.00
2018-11-28T22:31:00.109Z,88.10
2018-11-28T22:33:29.791Z,88.20
2018-11-28T22:35:59.444Z,87.40
2018-11-28T22:38:28.956Z,87.70
2018-11-28T22:40:58.447Z,87.50
2018-11-28T22:43:28.169Z,87.60
2018-11-28T22:45:57.745Z,87.10
2018-11-28T22:48:27.496Z,87.20
2018-11-28T22:50:57.055Z,87.70
2018-11-28T22:53:26.584Z,87.60
2018-11-28T22:55:56.128Z,87.60
2018-11-28T22:58:25.885Z,87.20
2018-11-28T23:01:00.742Z,87.60
2018-11-28T23:03:30.382Z,88.50
2018-11-28T23:06:00.430Z,88.50
2018-11-28T23:08:30.173Z,87.90
2018-11-28T23:10:59.877Z,87.90
2018-11-28T23:13:29.512Z,87.80
2018-11-28T23:15:59.103Z,87.70
2018-11-28T23:18:28.753Z,87.40
2018-11-28T23:20:58.407Z,88.20
2018-11-28T23:23:28.039Z,88.10
2018-11-28T23:25:57.706Z,88.00
2018-11-28T23:28:27.401Z,87.90
2018-11-28T23:30:57.146Z,87.70
2018-11-28T23:33:26.898Z,87.90
2018-11-28T23:35:56.284Z,87.40
2018-11-28T23:38:25.876Z,87.20
2018-11-28T23:40:55.603Z,87.20
2018-11-28T23:43:25.268Z,88.30
2018-11-28T23:45:55.098Z,88.20
2018-11-28T23:48:24.546Z,87.90
2018-11-28T23:50:54.356Z,88.30
2018-11-28T23:53:24.013Z,88.10
2018-11-28T23:55:53.794Z,88.60
2018-11-28T23:58:23.368Z,88.00
